sensor_id;sensor_type;location;lat;lon;timestamp;P1;durP1;ratioP1;P2;durP2;ratioP2
81364;SDS011;70821;53.016;9.010;2023-07-22T00:00:44;111.63;;;73.13;;
81364;SDS011;70821;53.016;9.010;2023-07-22T00:03:09;107.35;;;74.15;;
81364;SDS011;70821;53.016;9.010;2023-07-22T00:05:34;107.30;;;74.38;;
81364;SDS011;70821;53.016;9.010;2023-07-22T00:07:59;107.53;;;71.55;;
81364;SDS011;70821;53.016;9.010;2023-07-22T00:10:24;106.70;;;71.97;;
81364;SDS011;70821;53.016;9.010;2023-07-22T00:12:49;112.53;;;74.85;;
81364;SDS011;70821;53.016;9.010;2023-07-22T00:15:14;110.37;;;72.03;;
81364;SDS011;70821;53.016;9.010;2023-07-22T00:17:40;104.47;;;71.65;;
81364;SDS011;70821;53.016;9.010;2023-07-22T00:20:05;112.82;;;74.47;;
81364;SDS011;70821;53.016;9.010;2023-07-22T00:22:30;104.63;;;72.35;;
81364;SDS011;70821;53.016;9.010;2023-07-22T00:24:55;110.50;;;74.18;;
81364;SDS011;70821;53.016;9.010;2023-07-22T00:27:20;111.40;;;72.97;;
81364;SDS011;70821;53.016;9.010;2023-07-22T00:29:46;107.90;;;70.10;;
81364;SDS011;70821;53.016;9.010;2023-07-22T00:32:11;107.07;;;71.03;;
81364;SDS011;70821;53.016;9.010;2023-07-22T00:34:36;103.93;;;69.65;;
81364;SDS011;70821;53.016;9.010;2023-07-22T00:37:01;100.43;;;68.30;;
81364;SDS011;70821;53.016;9.010;2023-07-22T00:39:26;105.65;;;69.03;;
81364;SDS011;70821;53.016;9.010;2023-07-22T00:41:51;105.88;;;70.45;;
81364;SDS011;70821;53.016;9.010;2023-07-22T00:44:16;97.63;;;66.53;;
81364;SDS011;70821;53.016;9.010;2023-07-22T00:46:41;98.97;;;67.50;;
81364;SDS011;70821;53.016;9.010;2023-07-22T00:49:07;96.72;;;65.65;;
81364;SDS011;70821;53.016;9.010;2023-07-22T00:51:32;99.60;;;65.90;;
81364;SDS011;70821;53.016;9.010;2023-07-22T00:53:57;93.65;;;64.20;;
81364;SDS011;70821;53.016;9.010;2023-07-22T00:56:22;99.90;;;66.10;;
81364;SDS011;70821;53.016;9.010;2023-07-22T00:58:47;96.18;;;64.22;;
81364;SDS011;70821;53.016;9.010;2023-07-22T01:01:12;95.22;;;64.90;;
81364;SDS011;70821;53.016;9.010;2023-07-22T01:03:38;93.93;;;63.25;;
81364;SDS011;70821;53.016;9.010;2023-07-22T01:06:03;90.13;;;63.40;;
81364;SDS011;70821;53.016;9.010;2023-07-22T01:08:28;96.97;;;63.63;;
81364;SDS011;70821;53.016;9.010;2023-07-22T01:10:53;92.30;;;62.13;;
81364;SDS011;70821;53.016;9.010;2023-07-22T01:13:18;91.45;;;60.65;;
81364;SDS011;70821;53.016;9.010;2023-07-22T01:15:43;93.85;;;62.15;;
81364;SDS011;70821;53.016;9.010;2023-07-22T01:18:08;92.80;;;61.30;;
81364;SDS011;70821;53.016;9.010;2023-07-22T01:20:34;88.53;;;60.40;;
81364;SDS011;70821;53.016;9.010;2023-07-22T01:22:59;93.28;;;62.25;;
81364;SDS011;70821;53.016;9.010;2023-07-22T01:25:24;95.55;;;61.22;;
81364;SDS011;70821;53.016;9.010;2023-07-22T01:27:52;84.80;;;57.95;;
81364;SDS011;70821;53.016;9.010;2023-07-22T01:30:17;85.45;;;58.17;;
81364;SDS011;70821;53.016;9.010;2023-07-22T01:32:42;89.82;;;58.97;;
81364;SDS011;70821;53.016;9.010;2023-07-22T01:35:08;86.95;;;59.20;;
81364;SDS011;70821;53.016;9.010;2023-07-22T01:37:33;84.03;;;56.28;;
81364;SDS011;70821;53.016;9.010;2023-07-22T01:39:59;87.57;;;57.15;;
81364;SDS011;70821;53.016;9.010;2023-07-22T01:42:24;82.60;;;55.65;;
81364;SDS011;70821;53.016;9.010;2023-07-22T01:44:49;78.65;;;55.95;;
81364;SDS011;70821;53.016;9.010;2023-07-22T01:47:14;82.50;;;54.30;;
81364;SDS011;70821;53.016;9.010;2023-07-22T01:49:39;83.55;;;55.58;;
81364;SDS011;70821;53.016;9.010;2023-07-22T01:52:04;82.97;;;54.58;;
81364;SDS011;70821;53.016;9.010;2023-07-22T01:54:29;80.15;;;53.90;;
81364;SDS011;70821;53.016;9.010;2023-07-22T01:56:54;79.05;;;53.63;;
81364;SDS011;70821;53.016;9.010;2023-07-22T01:59:19;81.57;;;54.08;;
81364;SDS011;70821;53.016;9.010;2023-07-22T02:01:45;80.10;;;53.93;;
81364;SDS011;70821;53.016;9.010;2023-07-22T02:04:10;79.72;;;52.08;;
81364;SDS011;70821;53.016;9.010;2023-07-22T02:06:35;78.97;;;51.33;;
81364;SDS011;70821;53.016;9.010;2023-07-22T02:09:00;76.97;;;51.47;;
81364;SDS011;70821;53.016;9.010;2023-07-22T02:11:25;73.95;;;50.97;;
81364;SDS011;70821;53.016;9.010;2023-07-22T02:13:50;77.10;;;51.85;;
81364;SDS011;70821;53.016;9.010;2023-07-22T02:16:15;78.03;;;50.50;;
81364;SDS011;70821;53.016;9.010;2023-07-22T02:18:40;72.47;;;49.08;;
81364;SDS011;70821;53.016;9.010;2023-07-22T02:21:05;74.43;;;48.80;;
81364;SDS011;70821;53.016;9.010;2023-07-22T02:23:30;74.47;;;49.45;;
81364;SDS011;70821;53.016;9.010;2023-07-22T02:25:55;70.97;;;47.72;;
81364;SDS011;70821;53.016;9.010;2023-07-22T02:28:21;71.43;;;47.15;;
81364;SDS011;70821;53.016;9.010;2023-07-22T02:30:47;68.13;;;47.28;;
81364;SDS011;70821;53.016;9.010;2023-07-22T02:33:13;73.35;;;47.47;;
81364;SDS011;70821;53.016;9.010;2023-07-22T02:35:38;62.53;;;44.78;;
81364;SDS011;70821;53.016;9.010;2023-07-22T02:38:03;66.13;;;44.95;;
81364;SDS011;70821;53.016;9.010;2023-07-22T02:40:28;72.30;;;46.72;;
81364;SDS011;70821;53.016;9.010;2023-07-22T02:42:53;64.07;;;44.13;;
81364;SDS011;70821;53.016;9.010;2023-07-22T02:45:18;64.43;;;43.97;;
81364;SDS011;70821;53.016;9.010;2023-07-22T02:47:43;66.07;;;44.63;;
81364;SDS011;70821;53.016;9.010;2023-07-22T02:50:08;65.78;;;44.60;;
81364;SDS011;70821;53.016;9.010;2023-07-22T02:52:34;65.97;;;43.67;;
81364;SDS011;70821;53.016;9.010;2023-07-22T02:55:03;63.88;;;43.35;;
81364;SDS011;70821;53.016;9.010;2023-07-22T02:57:29;59.13;;;41.33;;
81364;SDS011;70821;53.016;9.010;2023-07-22T02:59:54;62.58;;;41.72;;
81364;SDS011;70821;53.016;9.010;2023-07-22T03:02:19;59.17;;;41.08;;
81364;SDS011;70821;53.016;9.010;2023-07-22T03:04:44;59.17;;;41.42;;
81364;SDS011;70821;53.016;9.010;2023-07-22T03:07:09;63.63;;;40.33;;
81364;SDS011;70821;53.016;9.010;2023-07-22T03:09:34;58.80;;;40.58;;
81364;SDS011;70821;53.016;9.010;2023-07-22T03:11:59;57.40;;;39.30;;
81364;SDS011;70821;53.016;9.010;2023-07-22T03:14:24;56.25;;;38.95;;
81364;SDS011;70821;53.016;9.010;2023-07-22T03:16:49;56.92;;;40.00;;
81364;SDS011;70821;53.016;9.010;2023-07-22T03:19:14;56.85;;;39.78;;
81364;SDS011;70821;53.016;9.010;2023-07-22T03:21:39;56.83;;;37.97;;
81364;SDS011;70821;53.016;9.010;2023-07-22T03:24:05;59.13;;;39.55;;
81364;SDS011;70821;53.016;9.010;2023-07-22T03:26:30;59.63;;;39.33;;
81364;SDS011;70821;53.016;9.010;2023-07-22T03:28:55;57.88;;;37.67;;
81364;SDS011;70821;53.016;9.010;2023-07-22T03:31:20;54.70;;;37.92;;
81364;SDS011;70821;53.016;9.010;2023-07-22T03:33:45;56.53;;;37.65;;
81364;SDS011;70821;53.016;9.010;2023-07-22T03:36:10;53.63;;;36.20;;
81364;SDS011;70821;53.016;9.010;2023-07-22T03:38:35;54.50;;;36.97;;
81364;SDS011;70821;53.016;9.010;2023-07-22T03:41:00;54.60;;;38.28;;
81364;SDS011;70821;53.016;9.010;2023-07-22T03:43:25;51.92;;;36.60;;
81364;SDS011;70821;53.016;9.010;2023-07-22T03:45:50;51.90;;;35.40;;
81364;SDS011;70821;53.016;9.010;2023-07-22T03:48:15;52.95;;;34.80;;
81364;SDS011;70821;53.016;9.010;2023-07-22T03:50:41;52.40;;;34.92;;
81364;SDS011;70821;53.016;9.010;2023-07-22T03:53:06;52.53;;;33.97;;
81364;SDS011;70821;53.016;9.010;2023-07-22T03:55:31;48.22;;;33.40;;
81364;SDS011;70821;53.016;9.010;2023-07-22T03:57:56;51.88;;;34.47;;
81364;SDS011;70821;53.016;9.010;2023-07-22T04:00:21;47.47;;;33.05;;
81364;SDS011;70821;53.016;9.010;2023-07-22T04:02:46;49.40;;;33.60;;
81364;SDS011;70821;53.016;9.010;2023-07-22T04:05:11;48.92;;;33.08;;
81364;SDS011;70821;53.016;9.010;2023-07-22T04:07:36;48.78;;;34.08;;
81364;SDS011;70821;53.016;9.010;2023-07-22T04:10:02;44.72;;;31.25;;
81364;SDS011;70821;53.016;9.010;2023-07-22T04:12:27;45.42;;;31.45;;
81364;SDS011;70821;53.016;9.010;2023-07-22T04:14:52;48.22;;;32.83;;
81364;SDS011;70821;53.016;9.010;2023-07-22T04:17:17;45.70;;;31.45;;
81364;SDS011;70821;53.016;9.010;2023-07-22T04:19:42;44.92;;;30.58;;
81364;SDS011;70821;53.016;9.010;2023-07-22T04:22:07;45.17;;;31.38;;
81364;SDS011;70821;53.016;9.010;2023-07-22T04:24:32;46.10;;;30.58;;
81364;SDS011;70821;53.016;9.010;2023-07-22T04:26:57;43.45;;;29.83;;
81364;SDS011;70821;53.016;9.010;2023-07-22T04:29:22;44.72;;;30.50;;
81364;SDS011;70821;53.016;9.010;2023-07-22T04:31:48;46.22;;;29.77;;
81364;SDS011;70821;53.016;9.010;2023-07-22T04:34:13;42.05;;;29.17;;
81364;SDS011;70821;53.016;9.010;2023-07-22T04:36:38;45.95;;;29.55;;
81364;SDS011;70821;53.016;9.010;2023-07-22T04:39:03;41.17;;;29.60;;
81364;SDS011;70821;53.016;9.010;2023-07-22T04:41:28;42.78;;;27.70;;
81364;SDS011;70821;53.016;9.010;2023-07-22T04:43:53;43.38;;;29.65;;
81364;SDS011;70821;53.016;9.010;2023-07-22T04:46:18;40.38;;;27.67;;
81364;SDS011;70821;53.016;9.010;2023-07-22T04:48:43;39.83;;;27.70;;
81364;SDS011;70821;53.016;9.010;2023-07-22T04:51:09;44.65;;;29.55;;
81364;SDS011;70821;53.016;9.010;2023-07-22T04:53:34;39.35;;;26.98;;
81364;SDS011;70821;53.016;9.010;2023-07-22T04:55:59;40.30;;;27.25;;
81364;SDS011;70821;53.016;9.010;2023-07-22T04:58:24;41.60;;;27.80;;
81364;SDS011;70821;53.016;9.010;2023-07-22T05:00:49;40.05;;;27.88;;
81364;SDS011;70821;53.016;9.010;2023-07-22T05:03:14;38.63;;;27.45;;
81364;SDS011;70821;53.016;9.010;2023-07-22T05:05:39;38.17;;;27.00;;
81364;SDS011;70821;53.016;9.010;2023-07-22T05:08:05;37.20;;;26.77;;
81364;SDS011;70821;53.016;9.010;2023-07-22T05:10:30;37.70;;;26.35;;
81364;SDS011;70821;53.016;9.010;2023-07-22T05:12:55;36.42;;;25.65;;
81364;SDS011;70821;53.016;9.010;2023-07-22T05:15:20;37.88;;;26.42;;
81364;SDS011;70821;53.016;9.010;2023-07-22T05:17:45;34.58;;;24.83;;
81364;SDS011;70821;53.016;9.010;2023-07-22T05:20:11;37.08;;;24.83;;
81364;SDS011;70821;53.016;9.010;2023-07-22T05:22:36;36.65;;;25.40;;
81364;SDS011;70821;53.016;9.010;2023-07-22T05:25:02;34.78;;;25.50;;
81364;SDS011;70821;53.016;9.010;2023-07-22T05:27:27;33.50;;;24.40;;
81364;SDS011;70821;53.016;9.010;2023-07-22T05:29:52;34.00;;;23.52;;
81364;SDS011;70821;53.016;9.010;2023-07-22T05:32:17;36.13;;;24.65;;
81364;SDS011;70821;53.016;9.010;2023-07-22T05:34:42;35.03;;;24.93;;
81364;SDS011;70821;53.016;9.010;2023-07-22T05:37:08;36.43;;;24.30;;
81364;SDS011;70821;53.016;9.010;2023-07-22T05:39:33;34.42;;;23.27;;
81364;SDS011;70821;53.016;9.010;2023-07-22T05:41:58;33.30;;;23.35;;
81364;SDS011;70821;53.016;9.010;2023-07-22T05:44:23;34.17;;;23.65;;
81364;SDS011;70821;53.016;9.010;2023-07-22T05:46:48;29.88;;;21.90;;
81364;SDS011;70821;53.016;9.010;2023-07-22T05:49:13;29.83;;;22.02;;
81364;SDS011;70821;53.016;9.010;2023-07-22T05:51:38;35.72;;;23.40;;
81364;SDS011;70821;53.016;9.010;2023-07-22T05:54:03;30.63;;;21.55;;
81364;SDS011;70821;53.016;9.010;2023-07-22T05:56:28;32.55;;;22.85;;
81364;SDS011;70821;53.016;9.010;2023-07-22T05:58:53;30.65;;;22.23;;
81364;SDS011;70821;53.016;9.010;2023-07-22T06:01:19;30.50;;;21.88;;
81364;SDS011;70821;53.016;9.010;2023-07-22T06:03:44;33.55;;;21.17;;
81364;SDS011;70821;53.016;9.010;2023-07-22T06:06:09;31.45;;;21.20;;
81364;SDS011;70821;53.016;9.010;2023-07-22T06:08:34;28.38;;;20.40;;
81364;SDS011;70821;53.016;9.010;2023-07-22T06:11:00;30.92;;;21.63;;
81364;SDS011;70821;53.016;9.010;2023-07-22T06:13:25;30.98;;;21.42;;
81364;SDS011;70821;53.016;9.010;2023-07-22T06:15:50;29.42;;;20.00;;
81364;SDS011;70821;53.016;9.010;2023-07-22T06:18:15;26.98;;;20.63;;
81364;SDS011;70821;53.016;9.010;2023-07-22T06:20:40;30.48;;;19.52;;
81364;SDS011;70821;53.016;9.010;2023-07-22T06:23:05;28.42;;;20.35;;
81364;SDS011;70821;53.016;9.010;2023-07-22T06:25:30;31.55;;;21.33;;
81364;SDS011;70821;53.016;9.010;2023-07-22T06:27:55;29.50;;;20.90;;
81364;SDS011;70821;53.016;9.010;2023-07-22T06:30:20;29.35;;;20.75;;
81364;SDS011;70821;53.016;9.010;2023-07-22T06:32:45;28.25;;;20.05;;
81364;SDS011;70821;53.016;9.010;2023-07-22T06:35:10;27.10;;;19.30;;
81364;SDS011;70821;53.016;9.010;2023-07-22T06:37:36;29.83;;;20.17;;
81364;SDS011;70821;53.016;9.010;2023-07-22T06:40:01;29.50;;;20.02;;
81364;SDS011;70821;53.016;9.010;2023-07-22T06:42:26;27.63;;;19.10;;
81364;SDS011;70821;53.016;9.010;2023-07-22T06:44:51;28.98;;;19.58;;
81364;SDS011;70821;53.016;9.010;2023-07-22T06:47:16;24.10;;;18.58;;
81364;SDS011;70821;53.016;9.010;2023-07-22T06:49:41;27.73;;;20.05;;
81364;SDS011;70821;53.016;9.010;2023-07-22T06:52:07;26.05;;;18.27;;
81364;SDS011;70821;53.016;9.010;2023-07-22T06:54:32;25.45;;;18.08;;
81364;SDS011;70821;53.016;9.010;2023-07-22T06:56:57;26.77;;;18.13;;
81364;SDS011;70821;53.016;9.010;2023-07-22T06:59:22;25.75;;;18.40;;
81364;SDS011;70821;53.016;9.010;2023-07-22T07:01:47;27.10;;;18.58;;
81364;SDS011;70821;53.016;9.010;2023-07-22T07:04:12;27.00;;;18.08;;
81364;SDS011;70821;53.016;9.010;2023-07-22T07:06:37;24.00;;;17.40;;
81364;SDS011;70821;53.016;9.010;2023-07-22T07:09:02;27.40;;;18.83;;
81364;SDS011;70821;53.016;9.010;2023-07-22T07:11:28;23.88;;;17.33;;
81364;SDS011;70821;53.016;9.010;2023-07-22T07:13:53;30.73;;;18.38;;
81364;SDS011;70821;53.016;9.010;2023-07-22T07:18:46;24.17;;;17.30;;
81364;SDS011;70821;53.016;9.010;2023-07-22T07:21:11;23.85;;;16.63;;
81364;SDS011;70821;53.016;9.010;2023-07-22T07:23:36;21.77;;;15.75;;
81364;SDS011;70821;53.016;9.010;2023-07-22T07:26:02;22.45;;;15.52;;
81364;SDS011;70821;53.016;9.010;2023-07-22T07:28:27;20.95;;;15.05;;
81364;SDS011;70821;53.016;9.010;2023-07-22T07:30:52;21.10;;;15.05;;
81364;SDS011;70821;53.016;9.010;2023-07-22T07:33:17;24.55;;;16.15;;
81364;SDS011;70821;53.016;9.010;2023-07-22T07:35:45;19.05;;;14.32;;
81364;SDS011;70821;53.016;9.010;2023-07-22T07:38:10;26.90;;;16.00;;
81364;SDS011;70821;53.016;9.010;2023-07-22T07:40:35;24.58;;;14.80;;
81364;SDS011;70821;53.016;9.010;2023-07-22T07:43:00;24.63;;;15.55;;
81364;SDS011;70821;53.016;9.010;2023-07-22T07:45:25;26.58;;;15.63;;
81364;SDS011;70821;53.016;9.010;2023-07-22T07:47:51;23.20;;;15.25;;
81364;SDS011;70821;53.016;9.010;2023-07-22T07:50:16;22.63;;;15.40;;
81364;SDS011;70821;53.016;9.010;2023-07-22T07:52:41;22.35;;;14.93;;
81364;SDS011;70821;53.016;9.010;2023-07-22T07:55:06;28.63;;;16.23;;
81364;SDS011;70821;53.016;9.010;2023-07-22T07:57:31;24.10;;;15.45;;
81364;SDS011;70821;53.016;9.010;2023-07-22T07:59:56;22.40;;;15.63;;
81364;SDS011;70821;53.016;9.010;2023-07-22T08:02:21;21.33;;;14.30;;
81364;SDS011;70821;53.016;9.010;2023-07-22T08:04:46;23.07;;;14.43;;
81364;SDS011;70821;53.016;9.010;2023-07-22T08:07:14;20.50;;;13.77;;
81364;SDS011;70821;53.016;9.010;2023-07-22T08:09:40;21.58;;;14.70;;
81364;SDS011;70821;53.016;9.010;2023-07-22T08:12:05;19.83;;;13.38;;
81364;SDS011;70821;53.016;9.010;2023-07-22T08:14:30;18.48;;;13.65;;
81364;SDS011;70821;53.016;9.010;2023-07-22T08:16:55;21.60;;;13.60;;
81364;SDS011;70821;53.016;9.010;2023-07-22T08:19:20;20.42;;;13.20;;
81364;SDS011;70821;53.016;9.010;2023-07-22T08:21:45;17.42;;;12.07;;
81364;SDS011;70821;53.016;9.010;2023-07-22T08:24:10;16.35;;;11.23;;
81364;SDS011;70821;53.016;9.010;2023-07-22T08:26:36;20.05;;;11.68;;
81364;SDS011;70821;53.016;9.010;2023-07-22T08:29:01;17.48;;;10.55;;
81364;SDS011;70821;53.016;9.010;2023-07-22T08:31:26;15.27;;;10.13;;
81364;SDS011;70821;53.016;9.010;2023-07-22T08:33:51;15.10;;;9.18;;
81364;SDS011;70821;53.016;9.010;2023-07-22T08:36:16;13.13;;;8.95;;
81364;SDS011;70821;53.016;9.010;2023-07-22T08:38:41;11.07;;;7.72;;
81364;SDS011;70821;53.016;9.010;2023-07-22T08:41:06;11.93;;;7.55;;
81364;SDS011;70821;53.016;9.010;2023-07-22T08:43:31;12.13;;;7.57;;
81364;SDS011;70821;53.016;9.010;2023-07-22T08:45:59;11.45;;;7.43;;
81364;SDS011;70821;53.016;9.010;2023-07-22T08:48:26;10.07;;;6.88;;
81364;SDS011;70821;53.016;9.010;2023-07-22T08:50:53;11.32;;;7.60;;
81364;SDS011;70821;53.016;9.010;2023-07-22T08:53:19;10.75;;;6.35;;
81364;SDS011;70821;53.016;9.010;2023-07-22T08:55:45;10.45;;;6.22;;
81364;SDS011;70821;53.016;9.010;2023-07-22T08:58:10;10.90;;;6.13;;
81364;SDS011;70821;53.016;9.010;2023-07-22T09:00:36;10.68;;;5.57;;
81364;SDS011;70821;53.016;9.010;2023-07-22T09:03:01;7.95;;;5.50;;
81364;SDS011;70821;53.016;9.010;2023-07-22T09:05:26;9.90;;;5.30;;
81364;SDS011;70821;53.016;9.010;2023-07-22T09:07:52;8.70;;;5.80;;
81364;SDS011;70821;53.016;9.010;2023-07-22T09:10:17;8.55;;;5.90;;
81364;SDS011;70821;53.016;9.010;2023-07-22T09:12:44;9.30;;;4.93;;
81364;SDS011;70821;53.016;9.010;2023-07-22T09:15:09;9.80;;;6.07;;
81364;SDS011;70821;53.016;9.010;2023-07-22T09:17:34;8.00;;;5.38;;
81364;SDS011;70821;53.016;9.010;2023-07-22T09:20:00;8.25;;;5.30;;
81364;SDS011;70821;53.016;9.010;2023-07-22T09:22:25;9.50;;;5.55;;
81364;SDS011;70821;53.016;9.010;2023-07-22T09:24:50;8.10;;;5.32;;
81364;SDS011;70821;53.016;9.010;2023-07-22T09:27:15;8.70;;;5.40;;
81364;SDS011;70821;53.016;9.010;2023-07-22T09:29:41;8.32;;;5.50;;
81364;SDS011;70821;53.016;9.010;2023-07-22T09:32:06;11.25;;;5.30;;
81364;SDS011;70821;53.016;9.010;2023-07-22T09:34:31;10.07;;;5.40;;
81364;SDS011;70821;53.016;9.010;2023-07-22T09:36:57;7.80;;;4.97;;
81364;SDS011;70821;53.016;9.010;2023-07-22T09:39:23;10.27;;;4.85;;
81364;SDS011;70821;53.016;9.010;2023-07-22T09:41:49;9.18;;;5.80;;
81364;SDS011;70821;53.016;9.010;2023-07-22T09:44:14;8.75;;;5.22;;
81364;SDS011;70821;53.016;9.010;2023-07-22T09:46:39;10.20;;;5.70;;
81364;SDS011;70821;53.016;9.010;2023-07-22T09:49:05;9.73;;;5.38;;
81364;SDS011;70821;53.016;9.010;2023-07-22T09:51:34;9.80;;;5.47;;
81364;SDS011;70821;53.016;9.010;2023-07-22T09:54:00;9.00;;;4.88;;
81364;SDS011;70821;53.016;9.010;2023-07-22T09:56:26;8.60;;;5.07;;
81364;SDS011;70821;53.016;9.010;2023-07-22T09:58:51;10.85;;;5.30;;
81364;SDS011;70821;53.016;9.010;2023-07-22T10:01:16;7.57;;;4.93;;
81364;SDS011;70821;53.016;9.010;2023-07-22T10:03:44;10.57;;;5.70;;
81364;SDS011;70821;53.016;9.010;2023-07-22T10:06:10;8.25;;;5.13;;
81364;SDS011;70821;53.016;9.010;2023-07-22T10:08:35;9.80;;;5.25;;
81364;SDS011;70821;53.016;9.010;2023-07-22T10:11:01;10.68;;;4.75;;
81364;SDS011;70821;53.016;9.010;2023-07-22T10:13:27;14.73;;;5.78;;
81364;SDS011;70821;53.016;9.010;2023-07-22T10:15:52;12.10;;;4.85;;
81364;SDS011;70821;53.016;9.010;2023-07-22T10:18:18;12.73;;;5.35;;
81364;SDS011;70821;53.016;9.010;2023-07-22T10:20:43;10.23;;;4.90;;
81364;SDS011;70821;53.016;9.010;2023-07-22T10:23:09;8.68;;;4.93;;
81364;SDS011;70821;53.016;9.010;2023-07-22T10:25:34;10.13;;;4.85;;
81364;SDS011;70821;53.016;9.010;2023-07-22T10:28:00;8.82;;;5.00;;
81364;SDS011;70821;53.016;9.010;2023-07-22T10:30:25;10.23;;;5.00;;
81364;SDS011;70821;53.016;9.010;2023-07-22T10:32:53;9.57;;;5.05;;
81364;SDS011;70821;53.016;9.010;2023-07-22T10:37:56;8.35;;;4.70;;
81364;SDS011;70821;53.016;9.010;2023-07-22T10:40:25;11.50;;;4.93;;
81364;SDS011;70821;53.016;9.010;2023-07-22T10:43:03;9.00;;;5.20;;
81364;SDS011;70821;53.016;9.010;2023-07-22T10:45:29;8.20;;;5.00;;
81364;SDS011;70821;53.016;9.010;2023-07-22T10:48:01;9.88;;;4.53;;
81364;SDS011;70821;53.016;9.010;2023-07-22T10:50:37;8.18;;;4.05;;
81364;SDS011;70821;53.016;9.010;2023-07-22T10:53:03;8.75;;;4.60;;
81364;SDS011;70821;53.016;9.010;2023-07-22T10:55:28;9.05;;;4.70;;
81364;SDS011;70821;53.016;9.010;2023-07-22T10:57:54;13.18;;;4.78;;
81364;SDS011;70821;53.016;9.010;2023-07-22T11:00:19;9.45;;;4.53;;
81364;SDS011;70821;53.016;9.010;2023-07-22T11:02:45;13.63;;;4.80;;
81364;SDS011;70821;53.016;9.010;2023-07-22T11:05:12;8.18;;;5.05;;
81364;SDS011;70821;53.016;9.010;2023-07-22T11:07:44;11.95;;;5.00;;
81364;SDS011;70821;53.016;9.010;2023-07-22T11:10:15;9.65;;;4.38;;
81364;SDS011;70821;53.016;9.010;2023-07-22T11:12:42;12.10;;;4.75;;
81364;SDS011;70821;53.016;9.010;2023-07-22T11:15:07;11.65;;;4.65;;
81364;SDS011;70821;53.016;9.010;2023-07-22T11:17:32;10.82;;;4.10;;
81364;SDS011;70821;53.016;9.010;2023-07-22T11:19:58;8.73;;;4.33;;
81364;SDS011;70821;53.016;9.010;2023-07-22T11:22:24;8.30;;;4.20;;
81364;SDS011;70821;53.016;9.010;2023-07-22T11:24:49;8.98;;;3.97;;
81364;SDS011;70821;53.016;9.010;2023-07-22T11:27:14;10.87;;;3.83;;
81364;SDS011;70821;53.016;9.010;2023-07-22T11:29:40;8.68;;;4.20;;
81364;SDS011;70821;53.016;9.010;2023-07-22T11:32:05;7.93;;;4.05;;
81364;SDS011;70821;53.016;9.010;2023-07-22T11:34:30;6.85;;;4.05;;
81364;SDS011;70821;53.016;9.010;2023-07-22T11:36:56;6.75;;;4.20;;
81364;SDS011;70821;53.016;9.010;2023-07-22T11:39:22;7.68;;;3.70;;
81364;SDS011;70821;53.016;9.010;2023-07-22T11:41:47;7.05;;;3.80;;
81364;SDS011;70821;53.016;9.010;2023-07-22T11:44:13;6.68;;;3.30;;
81364;SDS011;70821;53.016;9.010;2023-07-22T11:49:23;5.88;;;3.85;;
81364;SDS011;70821;53.016;9.010;2023-07-22T11:51:48;5.78;;;3.47;;
81364;SDS011;70821;53.016;9.010;2023-07-22T11:54:13;5.47;;;3.30;;
81364;SDS011;70821;53.016;9.010;2023-07-22T11:56:38;6.63;;;3.60;;
81364;SDS011;70821;53.016;9.010;2023-07-22T11:59:04;7.47;;;3.42;;
81364;SDS011;70821;53.016;9.010;2023-07-22T12:01:31;5.82;;;3.42;;
81364;SDS011;70821;53.016;9.010;2023-07-22T12:03:57;5.22;;;3.45;;
81364;SDS011;70821;53.016;9.010;2023-07-22T12:06:24;6.90;;;3.50;;
81364;SDS011;70821;53.016;9.010;2023-07-22T12:08:49;5.57;;;3.33;;
81364;SDS011;70821;53.016;9.010;2023-07-22T12:11:24;5.90;;;3.28;;
81364;SDS011;70821;53.016;9.010;2023-07-22T12:13:49;6.43;;;3.38;;
81364;SDS011;70821;53.016;9.010;2023-07-22T12:16:28;8.32;;;3.47;;
81364;SDS011;70821;53.016;9.010;2023-07-22T12:18:54;6.65;;;3.30;;
81364;SDS011;70821;53.016;9.010;2023-07-22T12:21:19;7.10;;;3.13;;
81364;SDS011;70821;53.016;9.010;2023-07-22T12:23:45;7.53;;;3.20;;
81364;SDS011;70821;53.016;9.010;2023-07-22T12:26:10;7.20;;;3.38;;
81364;SDS011;70821;53.016;9.010;2023-07-22T12:28:35;4.70;;;3.22;;
81364;SDS011;70821;53.016;9.010;2023-07-22T12:31:00;5.47;;;3.28;;
81364;SDS011;70821;53.016;9.010;2023-07-22T12:33:26;5.13;;;3.03;;
81364;SDS011;70821;53.016;9.010;2023-07-22T12:35:53;6.03;;;3.03;;
81364;SDS011;70821;53.016;9.010;2023-07-22T12:38:18;7.57;;;3.40;;
81364;SDS011;70821;53.016;9.010;2023-07-22T12:40:43;6.32;;;3.08;;
81364;SDS011;70821;53.016;9.010;2023-07-22T12:43:08;4.82;;;3.03;;
81364;SDS011;70821;53.016;9.010;2023-07-22T12:45:33;5.90;;;3.47;;
81364;SDS011;70821;53.016;9.010;2023-07-22T12:47:58;7.47;;;3.10;;
81364;SDS011;70821;53.016;9.010;2023-07-22T12:50:23;6.18;;;3.13;;
81364;SDS011;70821;53.016;9.010;2023-07-22T12:52:49;7.40;;;3.33;;
81364;SDS011;70821;53.016;9.010;2023-07-22T12:55:14;4.45;;;3.15;;
81364;SDS011;70821;53.016;9.010;2023-07-22T12:57:39;4.25;;;2.90;;
81364;SDS011;70821;53.016;9.010;2023-07-22T13:00:04;5.78;;;2.90;;
81364;SDS011;70821;53.016;9.010;2023-07-22T13:02:29;5.75;;;2.80;;
81364;SDS011;70821;53.016;9.010;2023-07-22T13:04:54;6.82;;;2.90;;
81364;SDS011;70821;53.016;9.010;2023-07-22T13:07:19;4.97;;;2.70;;
81364;SDS011;70821;53.016;9.010;2023-07-22T13:09:44;5.28;;;2.70;;
81364;SDS011;70821;53.016;9.010;2023-07-22T13:12:10;8.20;;;3.10;;
81364;SDS011;70821;53.016;9.010;2023-07-22T13:14:35;7.95;;;3.20;;
81364;SDS011;70821;53.016;9.010;2023-07-22T13:17:00;7.68;;;2.97;;
81364;SDS011;70821;53.016;9.010;2023-07-22T13:19:25;5.65;;;2.95;;
81364;SDS011;70821;53.016;9.010;2023-07-22T13:21:50;7.93;;;2.92;;
81364;SDS011;70821;53.016;9.010;2023-07-22T13:24:15;5.68;;;2.70;;
81364;SDS011;70821;53.016;9.010;2023-07-22T13:26:40;6.50;;;3.33;;
81364;SDS011;70821;53.016;9.010;2023-07-22T13:29:05;7.43;;;2.90;;
81364;SDS011;70821;53.016;9.010;2023-07-22T13:31:30;6.40;;;2.63;;
81364;SDS011;70821;53.016;9.010;2023-07-22T13:33:56;10.35;;;3.75;;
81364;SDS011;70821;53.016;9.010;2023-07-22T13:36:21;9.70;;;3.35;;
81364;SDS011;70821;53.016;9.010;2023-07-22T13:38:46;9.88;;;3.40;;
81364;SDS011;70821;53.016;9.010;2023-07-22T13:41:11;11.93;;;3.53;;
81364;SDS011;70821;53.016;9.010;2023-07-22T13:43:36;6.35;;;3.10;;
81364;SDS011;70821;53.016;9.010;2023-07-22T13:46:01;6.97;;;3.70;;
81364;SDS011;70821;53.016;9.010;2023-07-22T13:48:26;10.65;;;3.38;;
81364;SDS011;70821;53.016;9.010;2023-07-22T13:50:51;9.60;;;3.13;;
81364;SDS011;70821;53.016;9.010;2023-07-22T13:53:16;7.20;;;3.05;;
81364;SDS011;70821;53.016;9.010;2023-07-22T13:55:41;8.45;;;3.40;;
81364;SDS011;70821;53.016;9.010;2023-07-22T13:58:06;6.63;;;3.15;;
81364;SDS011;70821;53.016;9.010;2023-07-22T14:00:32;6.07;;;3.17;;
81364;SDS011;70821;53.016;9.010;2023-07-22T14:02:57;7.30;;;2.97;;
81364;SDS011;70821;53.016;9.010;2023-07-22T14:05:22;7.97;;;3.22;;
81364;SDS011;70821;53.016;9.010;2023-07-22T14:07:47;8.20;;;2.90;;
81364;SDS011;70821;53.016;9.010;2023-07-22T14:10:12;8.88;;;3.67;;
81364;SDS011;70821;53.016;9.010;2023-07-22T14:12:37;9.40;;;3.30;;
81364;SDS011;70821;53.016;9.010;2023-07-22T14:15:02;5.55;;;3.28;;
81364;SDS011;70821;53.016;9.010;2023-07-22T14:17:27;7.93;;;3.20;;
81364;SDS011;70821;53.016;9.010;2023-07-22T14:19:52;6.75;;;2.88;;
81364;SDS011;70821;53.016;9.010;2023-07-22T14:22:17;6.18;;;3.30;;
81364;SDS011;70821;53.016;9.010;2023-07-22T14:24:43;7.82;;;3.22;;
81364;SDS011;70821;53.016;9.010;2023-07-22T14:27:08;9.43;;;3.67;;